createdAt,value
2019-03-30T00:00:03.869Z,1028
2019-03-30T00:01:03.304Z,1028
2019-03-30T00:02:04.140Z,1028
2019-03-30T00:03:03.631Z,1027.9
2019-03-30T00:04:03.701Z,1028
2019-03-30T00:05:03.704Z,1028
2019-03-30T00:06:03.354Z,1028
2019-03-30T00:07:03.929Z,1028
2019-03-30T00:08:03.508Z,1028
2019-03-30T00:09:03.718Z,1027.9
2019-03-30T00:10:03.422Z,1027.9
2019-03-30T00:11:03.380Z,1028
2019-03-30T00:12:03.321Z,1027.8
2019-03-30T00:13:03.258Z,1027.9
2019-03-30T00:14:03.185Z,1027.9
2019-03-30T00:15:03.693Z,1027.9
2019-03-30T00:16:03.528Z,1027.9
2019-03-30T00:17:03.785Z,1027.9
2019-03-30T00:18:03.471Z,1027.8
2019-03-30T00:19:03.707Z,1027.9
2019-03-30T00:20:03.619Z,1027.8
2019-03-30T00:21:03.728Z,1027.9
2019-03-30T00:22:03.518Z,1027.8
2019-03-30T00:23:03.565Z,1027.8
2019-03-30T00:24:03.663Z,1027.7
2019-03-30T00:25:03.261Z,1027.8
2019-03-30T00:26:03.523Z,1027.9
2019-03-30T00:27:03.466Z,1027.8
2019-03-30T00:28:03.777Z,1027.8
2019-03-30T00:29:03.531Z,1027.8
2019-03-30T00:30:03.432Z,1027.7
2019-03-30T00:31:03.532Z,1027.8
2019-03-30T00:32:03.605Z,1027.7
2019-03-30T00:33:03.324Z,1027.7
2019-03-30T00:34:03.288Z,1027.7
2019-03-30T00:35:03.389Z,1027.7
2019-03-30T00:36:03.262Z,1027.7
2019-03-30T00:37:02.966Z,1027.7
2019-03-30T00:38:03.200Z,1027.7
2019-03-30T00:39:03.609Z,1027.7
2019-03-30T00:40:03.464Z,1027.7
2019-03-30T00:41:03.474Z,1027.7
2019-03-30T00:42:03.411Z,1027.7
2019-03-30T00:43:03.351Z,1027.7
2019-03-30T00:44:03.552Z,1027.7
2019-03-30T00:45:03.649Z,1027.8
2019-03-30T00:46:03.351Z,1027.7
2019-03-30T00:47:03.195Z,1027.7
2019-03-30T00:48:03.578Z,1027.6
2019-03-30T00:49:03.008Z,1027.7
2019-03-30T00:50:03.488Z,1027.7
2019-03-30T00:51:03.540Z,1027.8
2019-03-30T00:52:03.562Z,1027.7
2019-03-30T00:53:03.481Z,1027.7
2019-03-30T00:54:03.400Z,1027.7
2019-03-30T00:55:03.608Z,1027.7
2019-03-30T00:56:03.363Z,1027.7
2019-03-30T00:57:03.270Z,1027.7
2019-03-30T00:58:03.308Z,1027.7
2019-03-30T00:59:03.217Z,1027.6
2019-03-30T01:00:03.339Z,1027.7
2019-03-30T01:01:03.020Z,1027.6
2019-03-30T01:02:03.205Z,1027.6
2019-03-30T01:03:03.310Z,1027.6
2019-03-30T01:04:03.070Z,1027.7
2019-03-30T01:05:03.482Z,1027.6
2019-03-30T01:06:03.241Z,1027.5
2019-03-30T01:07:03.280Z,1027.6
2019-03-30T01:08:03.186Z,1027.6
2019-03-30T01:09:03.453Z,1027.6
2019-03-30T01:10:03.348Z,1027.6
2019-03-30T01:11:03.105Z,1027.8
2019-03-30T01:12:03.094Z,1027.8
2019-03-30T01:13:03.614Z,1027.7
2019-03-30T01:14:03.087Z,1027.6
2019-03-30T01:15:03.438Z,1027.6
2019-03-30T01:16:02.891Z,1027.7
2019-03-30T01:17:03.079Z,1027.6
2019-03-30T01:18:03.785Z,1027.7
2019-03-30T01:19:03.032Z,1027.6
2019-03-30T01:20:04.236Z,1027.7
2019-03-30T01:21:03.132Z,1027.7
2019-03-30T01:22:02.987Z,1027.7
2019-03-30T01:23:03.227Z,1027.6
2019-03-30T01:24:03.041Z,1027.7
2019-03-30T01:25:03.242Z,1027.7
2019-03-30T01:26:02.966Z,1027.7
2019-03-30T01:27:03.692Z,1027.7
2019-03-30T01:28:03.744Z,1027.8
2019-03-30T01:29:03.637Z,1027.7
2019-03-30T01:30:04.471Z,1027.7
2019-03-30T01:31:03.828Z,1027.7
2019-03-30T01:32:03.732Z,1027.7
2019-03-30T01:33:03.694Z,1027.7
2019-03-30T01:34:03.880Z,1027.7
2019-03-30T01:35:04.086Z,1027.7
2019-03-30T01:36:03.711Z,1027.7
2019-03-30T01:37:03.863Z,1027.7
2019-03-30T01:38:03.081Z,1027.7
2019-03-30T01:39:03.784Z,1027.6
2019-03-30T01:40:03.251Z,1027.7
2019-03-30T01:41:02.886Z,1027.6
2019-03-30T01:42:03.464Z,1027.7
2019-03-30T01:43:02.870Z,1027.7
2019-03-30T01:44:02.967Z,1027.6
2019-03-30T01:45:03.532Z,1027.7
2019-03-30T01:46:03.922Z,1027.7
2019-03-30T01:47:02.997Z,1027.7
2019-03-30T01:48:02.928Z,1027.6
2019-03-30T01:49:03.215Z,1027.5
2019-03-30T01:50:18.603Z,1027.8
2019-03-30T01:51:03.205Z,1027.5
2019-03-30T01:52:03.667Z,1027.5
2019-03-30T01:53:03.485Z,1027.6
2019-03-30T01:54:03.387Z,1027.5
2019-03-30T01:55:03.013Z,1027.6
2019-03-30T01:56:03.096Z,1027.6
2019-03-30T01:57:03.148Z,1027.6
2019-03-30T01:58:03.118Z,1027.6
2019-03-30T01:59:03.142Z,1027.6
2019-03-30T02:00:03.119Z,1027.6
2019-03-30T02:01:03.116Z,1027.5
2019-03-30T02:02:03.370Z,1027.6
2019-03-30T02:03:03.256Z,1027.6
2019-03-30T02:04:02.940Z,1027.5
2019-03-30T02:05:03.524Z,1027.7
2019-03-30T02:06:03.176Z,1027.7
2019-03-30T02:07:02.949Z,1027.5
2019-03-30T02:08:03.185Z,1027.6
2019-03-30T02:09:02.991Z,1027.6
2019-03-30T02:10:03.891Z,1027.6
2019-03-30T02:11:03.846Z,1027.5
2019-03-30T02:12:03.058Z,1027.5
2019-03-30T02:13:03.131Z,1027.6
2019-03-30T02:14:03.970Z,1027.5
2019-03-30T02:15:03.321Z,1027.6
2019-03-30T02:16:03.530Z,1027.5
2019-03-30T02:17:03.066Z,1027.5
2019-03-30T02:18:03.276Z,1027.6
2019-03-30T02:19:03.228Z,1027.5
2019-03-30T02:20:03.447Z,1027.5
2019-03-30T02:21:03.193Z,1027.5
2019-03-30T02:22:03.235Z,1027.5
2019-03-30T02:23:03.324Z,1027.5
2019-03-30T02:24:03.083Z,1027.6
2019-03-30T02:25:03.218Z,1027.5
2019-03-30T02:26:03.553Z,1027.6
2019-03-30T02:27:03.347Z,1027.5
2019-03-30T02:28:07.630Z,1027.5
2019-03-30T02:29:03.270Z,1027.6
2019-03-30T02:30:03.260Z,1027.5
2019-03-30T02:31:03.342Z,1027.6
2019-03-30T02:32:03.304Z,1027.5
2019-03-30T02:33:03.430Z,1027.5
2019-03-30T02:34:03.141Z,1027.6
2019-03-30T02:35:03.422Z,1027.5
2019-03-30T02:36:03.293Z,1027.5
2019-03-30T02:37:03.250Z,1027.6
2019-03-30T02:38:03.174Z,1027.6
2019-03-30T02:39:03.224Z,1027.6
2019-03-30T02:40:03.312Z,1027.5
2019-03-30T02:41:02.997Z,1027.5
2019-03-30T02:42:03.268Z,1027.5
2019-03-30T02:43:02.840Z,1027.5
2019-03-30T02:44:03.322Z,1027.5
2019-03-30T02:45:03.624Z,1027.4
2019-03-30T02:46:03.232Z,1027.6
2019-03-30T02:47:04.006Z,1027.5
2019-03-30T02:48:03.917Z,1027.5
2019-03-30T02:49:02.972Z,1027.5
2019-03-30T02:50:03.095Z,1027.4
2019-03-30T02:51:03.209Z,1027.4
2019-03-30T02:52:03.005Z,1027.5
2019-03-30T02:53:02.828Z,1027.4
2019-03-30T02:54:04.009Z,1027.5
2019-03-30T02:55:03.972Z,1027.5
2019-03-30T02:56:03.984Z,1027.5
2019-03-30T02:57:03.183Z,1027.4
2019-03-30T02:58:04.059Z,1027.4
2019-03-30T02:59:03.232Z,1027.4
2019-03-30T03:00:03.054Z,1027.4
2019-03-30T03:01:03.577Z,1027.4
2019-03-30T03:02:03.476Z,1027.4
2019-03-30T03:03:03.046Z,1027.4
2019-03-30T03:04:03.154Z,1027.4
2019-03-30T03:05:03.110Z,1027.4
2019-03-30T03:06:03.238Z,1027.5
2019-03-30T03:07:03.055Z,1027.4
2019-03-30T03:08:03.533Z,1027.5
2019-03-30T03:09:02.926Z,1027.4
2019-03-30T03:10:03.091Z,1027.4
2019-03-30T03:11:03.349Z,1027.5
2019-03-30T03:12:03.912Z,1027.5
2019-03-30T03:13:03.257Z,1027.4
2019-03-30T03:14:03.358Z,1027.4
2019-03-30T03:15:03.544Z,1027.5
2019-03-30T03:16:03.655Z,1027.5
2019-03-30T03:17:03.553Z,1027.4
2019-03-30T03:18:03.937Z,1027.4
2019-03-30T03:19:03.597Z,1027.4
2019-03-30T03:20:03.440Z,1027.4
2019-03-30T03:21:09.450Z,1027.4
2019-03-30T03:22:03.522Z,1027.4
2019-03-30T03:23:03.659Z,1027.3
2019-03-30T03:24:03.596Z,1027.4
2019-03-30T03:25:03.757Z,1027.3
2019-03-30T03:26:03.537Z,1027.4
2019-03-30T03:27:04.450Z,1027.4
2019-03-30T03:28:03.373Z,1027.4
2019-03-30T03:29:03.626Z,1027.5
2019-03-30T03:30:03.851Z,1027.4
2019-03-30T03:31:03.789Z,1027.4
2019-03-30T03:32:03.887Z,1027.4
2019-03-30T03:33:04.038Z,1027.4
2019-03-30T03:34:03.916Z,1027.3
2019-03-30T03:35:03.688Z,1027.3
2019-03-30T03:36:03.473Z,1027.4
2019-03-30T03:37:03.548Z,1027.4
2019-03-30T03:38:03.682Z,1027.4
2019-03-30T03:39:03.378Z,1027.4
2019-03-30T03:40:03.575Z,1027.4
2019-03-30T03:41:03.438Z,1027.4
2019-03-30T03:42:03.454Z,1027.4
2019-03-30T03:43:03.676Z,1027.4
2019-03-30T03:44:03.278Z,1027.4
2019-03-30T03:45:03.637Z,1027.5
2019-03-30T03:46:03.348Z,1027.4
2019-03-30T03:47:03.518Z,1027.4
2019-03-30T03:48:03.251Z,1027.4
2019-03-30T03:49:03.455Z,1027.4
2019-03-30T03:50:03.351Z,1027.4
2019-03-30T03:51:03.634Z,1027.5
2019-03-30T03:52:03.523Z,1027.3
2019-03-30T03:53:03.884Z,1027.6
2019-03-30T03:54:03.199Z,1027.6
2019-03-30T03:55:03.409Z,1027.5
2019-03-30T03:56:03.175Z,1027.6
2019-03-30T03:57:03.303Z,1027.6
2019-03-30T03:58:03.539Z,1027.7
2019-03-30T03:59:03.285Z,1027.7
2019-03-30T04:00:03.142Z,1027.6
2019-03-30T04:01:03.235Z,1027.6
2019-03-30T04:02:03.157Z,1027.6
2019-03-30T04:03:03.303Z,1027.6
2019-03-30T04:04:03.595Z,1027.7
2019-03-30T04:05:03.258Z,1027.7
2019-03-30T04:06:03.359Z,1027.6
2019-03-30T04:07:03.237Z,1027.7
2019-03-30T04:08:03.289Z,1027.7
2019-03-30T04:09:04.207Z,1027.7
2019-03-30T04:10:03.515Z,1027.6
2019-03-30T04:11:03.947Z,1027.6
2019-03-30T04:12:03.987Z,1027.7
2019-03-30T04:13:07.873Z,1027.7
2019-03-30T04:14:04.481Z,1027.7
2019-03-30T04:15:03.011Z,1027.7
2019-03-30T04:16:04.025Z,1027.8
2019-03-30T04:17:03.644Z,1027.7
2019-03-30T04:18:03.634Z,1027.8
2019-03-30T04:19:03.536Z,1027.8
2019-03-30T04:20:03.804Z,1027.9
2019-03-30T04:21:03.521Z,1027.8
2019-03-30T04:22:03.923Z,1027.8
2019-03-30T04:23:03.712Z,1027.8
2019-03-30T04:24:03.865Z,1027.8
2019-03-30T04:25:04.130Z,1027.7
2019-03-30T04:26:03.142Z,1027.7
2019-03-30T04:27:03.851Z,1027.7
2019-03-30T04:28:03.869Z,1027.9
2019-03-30T04:29:03.945Z,1027.9
2019-03-30T04:30:03.826Z,1027.8
2019-03-30T04:31:03.536Z,1027.8
2019-03-30T04:32:03.510Z,1027.8
2019-03-30T04:33:03.766Z,1027.9
2019-03-30T04:34:03.873Z,1027.9
2019-03-30T04:35:04.105Z,1027.8
2019-03-30T04:36:03.724Z,1027.9
2019-03-30T04:37:02.898Z,1027.9
2019-03-30T04:38:03.760Z,1027.8
2019-03-30T04:39:03.965Z,1027.6
2019-03-30T04:40:03.130Z,1027.7
2019-03-30T04:41:03.769Z,1027.8
2019-03-30T04:42:03.762Z,1027.7
2019-03-30T04:43:03.538Z,1027.8
2019-03-30T04:44:03.598Z,1027.7
2019-03-30T04:45:03.383Z,1027.7
2019-03-30T04:46:03.986Z,1027.8
2019-03-30T04:47:03.662Z,1027.7
2019-03-30T04:48:03.565Z,1027.8
2019-03-30T04:49:03.572Z,1027.7
2019-03-30T04:50:03.242Z,1027.7
2019-03-30T04:51:03.871Z,1027.8
2019-03-30T04:52:03.002Z,1027.8
2019-03-30T04:53:03.089Z,1027.8
2019-03-30T04:54:03.073Z,1027.8
2019-03-30T04:55:03.113Z,1027.7
2019-03-30T04:56:03.917Z,1027.8
2019-03-30T04:57:03.002Z,1027.7
2019-03-30T04:58:02.827Z,1027.7
2019-03-30T04:59:02.978Z,1027.7
2019-03-30T05:00:03.769Z,1027.8
2019-03-30T05:01:03.181Z,1027.7
2019-03-30T05:02:03.817Z,1027.8
2019-03-30T05:03:03.094Z,1027.7
2019-03-30T05:04:03.105Z,1027.7
2019-03-30T05:05:03.190Z,1027.8
2019-03-30T05:06:02.871Z,1027.8
2019-03-30T05:07:03.158Z,1027.7
2019-03-30T05:08:03.112Z,1027.8
2019-03-30T05:09:03.020Z,1027.9
2019-03-30T05:10:03.351Z,1027.9
2019-03-30T05:11:03.875Z,1027.9
2019-03-30T05:12:02.844Z,1027.8
2019-03-30T05:13:03.653Z,1027.8
2019-03-30T05:14:03.227Z,1027.8
2019-03-30T05:15:03.099Z,1027.8
2019-03-30T05:16:03.086Z,1027.9
2019-03-30T05:17:03.970Z,1027.9
2019-03-30T05:18:02.843Z,1027.8
2019-03-30T05:19:02.923Z,1027.9
2019-03-30T05:20:03.771Z,1027.9
2019-03-30T05:21:02.936Z,1027.8
2019-03-30T05:22:17.188Z,1028
2019-03-30T05:23:03.792Z,1027.8
2019-03-30T05:24:03.862Z,1027.8
2019-03-30T05:25:03.328Z,1027.9
2019-03-30T05:26:03.684Z,1027.9
2019-03-30T05:27:03.876Z,1027.8
2019-03-30T05:28:03.736Z,1027.8
2019-03-30T05:29:03.848Z,1027.8
2019-03-30T05:30:03.829Z,1027.8
2019-03-30T05:31:03.302Z,1027.9
2019-03-30T05:32:03.124Z,1027.9
2019-03-30T05:33:07.044Z,1027.9
2019-03-30T05:34:03.130Z,1027.9
2019-03-30T05:35:03.261Z,1027.8
2019-03-30T05:36:02.991Z,1027.9
2019-03-30T05:37:02.941Z,1027.8
2019-03-30T05:38:03.197Z,1027.9
2019-03-30T05:39:03.005Z,1027.8
2019-03-30T05:40:03.283Z,1027.9
2019-03-30T05:41:02.908Z,1027.8
2019-03-30T05:42:03.782Z,1027.9
2019-03-30T05:43:03.728Z,1027.8
2019-03-30T05:44:03.551Z,1027.7
2019-03-30T05:45:04.106Z,1027.9
2019-03-30T05:46:03.566Z,1027.7
2019-03-30T05:47:03.903Z,1027.8
2019-03-30T05:48:03.470Z,1027.9
2019-03-30T05:49:03.922Z,1027.8
2019-03-30T05:50:03.507Z,1027.8
2019-03-30T05:51:03.801Z,1027.8
2019-03-30T05:52:03.702Z,1027.9
2019-03-30T05:53:03.597Z,1027.8
2019-03-30T05:54:03.414Z,1027.8
2019-03-30T05:55:03.890Z,1027.8
2019-03-30T05:56:03.740Z,1027.8
2019-03-30T05:57:03.498Z,1027.9
2019-03-30T05:58:03.917Z,1027.9
2019-03-30T05:59:03.320Z,1027.8
2019-03-30T06:00:03.540Z,1027.7
2019-03-30T06:01:03.549Z,1027.7
2019-03-30T06:02:03.383Z,1027.8
2019-03-30T06:03:03.304Z,1027.7
2019-03-30T06:04:03.157Z,1027.7
2019-03-30T06:05:04.234Z,1027.7
2019-03-30T06:06:03.271Z,1027.7
2019-03-30T06:07:03.311Z,1027.7
2019-03-30T06:08:03.012Z,1027.6
2019-03-30T06:09:03.765Z,1027.6
2019-03-30T06:10:03.919Z,1027.7
2019-03-30T06:11:03.467Z,1027.7
2019-03-30T06:12:03.710Z,1027.6
2019-03-30T06:13:03.770Z,1027.6
2019-03-30T06:14:03.590Z,1027.7
2019-03-30T06:15:03.737Z,1027.6
2019-03-30T06:16:03.496Z,1027.6
2019-03-30T06:17:03.455Z,1027.7
2019-03-30T06:18:03.596Z,1027.6
2019-03-30T06:19:03.072Z,1027.6
2019-03-30T06:20:03.123Z,1027.6
2019-03-30T06:21:03.010Z,1027.6
2019-03-30T06:22:03.184Z,1027.6
2019-03-30T06:23:03.178Z,1027.6
2019-03-30T06:24:03.147Z,1027.6
2019-03-30T06:25:03.807Z,1027.6
2019-03-30T06:26:03.589Z,1027.6
2019-03-30T06:27:03.668Z,1027.6
2019-03-30T06:28:03.221Z,1027.6
2019-03-30T06:29:03.068Z,1027.5
2019-03-30T06:30:03.490Z,1027.5
2019-03-30T06:31:03.642Z,1027.5
2019-03-30T06:32:03.578Z,1027.4
2019-03-30T06:33:03.476Z,1027.5
2019-03-30T06:34:03.920Z,1027.4
2019-03-30T06:35:03.427Z,1027.3
2019-03-30T06:36:03.437Z,1027.3
2019-03-30T06:37:03.846Z,1027.3
2019-03-30T06:38:01.972Z,1027.4
2019-03-30T06:39:03.557Z,1027.3
2019-03-30T06:40:03.164Z,1027.3
2019-03-30T06:41:03.574Z,1027.4
2019-03-30T06:42:02.916Z,1027.3
2019-03-30T06:43:03.822Z,1027.3
2019-03-30T06:44:03.924Z,1027.2
2019-03-30T06:45:03.693Z,1027.2
2019-03-30T06:46:03.593Z,1027.3
2019-03-30T06:47:03.795Z,1027.2
2019-03-30T06:48:03.421Z,1027.3
2019-03-30T06:49:03.082Z,1027.3
2019-03-30T06:50:03.440Z,1027.2
2019-03-30T06:51:03.164Z,1027.1
2019-03-30T06:52:03.498Z,1027.2
2019-03-30T06:53:03.585Z,1027.1
2019-03-30T06:54:03.155Z,1027
2019-03-30T06:55:03.840Z,1027
2019-03-30T06:56:03.539Z,1026.8
2019-03-30T06:57:03.687Z,1026.9
2019-03-30T06:58:03.576Z,1026.8
2019-03-30T06:59:03.473Z,1026.7
2019-03-30T07:00:03.833Z,1026.6
2019-03-30T07:01:03.845Z,1026.6
2019-03-30T07:02:03.656Z,1026.5
2019-03-30T07:03:03.237Z,1026.5
2019-03-30T07:04:03.626Z,1026.5
2019-03-30T07:05:03.673Z,1026.5
2019-03-30T07:06:03.557Z,1026.4
2019-03-30T07:07:03.662Z,1026.5
2019-03-30T07:08:03.834Z,1026.4
2019-03-30T07:09:03.725Z,1026.2
2019-03-30T07:10:03.817Z,1026.2
2019-03-30T07:11:03.898Z,1026.3
2019-03-30T07:12:03.792Z,1026.3
2019-03-30T07:13:03.618Z,1026.3
2019-03-30T07:14:03.019Z,1026.3
2019-03-30T07:15:03.496Z,1026.3
2019-03-30T07:16:03.965Z,1026.2
2019-03-30T07:17:03.660Z,1026.3
2019-03-30T07:18:03.584Z,1026.3
2019-03-30T07:19:03.620Z,1026.2
2019-03-30T07:20:03.657Z,1026.3
2019-03-30T07:21:03.869Z,1026.2
2019-03-30T07:22:03.564Z,1026.2
2019-03-30T07:23:13.355Z,1026.1
2019-03-30T07:24:03.611Z,1026.2
2019-03-30T07:25:03.941Z,1026
2019-03-30T07:26:03.654Z,1025.9
2019-03-30T07:27:03.361Z,1026.1
2019-03-30T07:28:03.787Z,1026
2019-03-30T07:29:03.522Z,1026.1
2019-03-30T07:30:03.477Z,1026
2019-03-30T07:31:03.462Z,1025.9
2019-03-30T07:32:03.521Z,1026
2019-03-30T07:33:03.504Z,1025.8
2019-03-30T07:34:03.111Z,1025.7
2019-03-30T07:35:03.525Z,1025.8
2019-03-30T07:36:03.707Z,1025.7
2019-03-30T07:37:03.755Z,1025.6
2019-03-30T07:38:03.468Z,1025.6
2019-03-30T07:39:02.912Z,1025.6
2019-03-30T07:40:03.809Z,1025.5
2019-03-30T07:41:03.679Z,1025.4
2019-03-30T07:42:03.782Z,1025.5
2019-03-30T07:43:03.480Z,1025.5
2019-03-30T07:44:03.571Z,1025.5
2019-03-30T07:45:03.636Z,1025.4
2019-03-30T07:46:03.533Z,1025.4
2019-03-30T07:47:03.517Z,1025.4
2019-03-30T07:48:03.621Z,1025.3
2019-03-30T07:49:03.920Z,1025.3
2019-03-30T07:50:03.638Z,1025.2
2019-03-30T07:51:03.426Z,1025.1
2019-03-30T07:52:03.788Z,1025.2
2019-03-30T07:53:03.513Z,1025.2
2019-03-30T07:54:03.592Z,1025.2
2019-03-30T07:55:03.587Z,1025.2
2019-03-30T07:56:09.392Z,1025.2
2019-03-30T07:57:17.852Z,1025.2
2019-03-30T07:58:04.529Z,1025.3
2019-03-30T07:59:03.441Z,1025.2
2019-03-30T08:00:03.717Z,1025.2
2019-03-30T08:01:03.441Z,1025.1
2019-03-30T08:02:03.743Z,1025.2
2019-03-30T08:03:03.714Z,1025.2
2019-03-30T08:04:03.985Z,1025.2
2019-03-30T08:05:03.668Z,1025.2
2019-03-30T08:06:03.149Z,1025.1
2019-03-30T08:07:03.671Z,1025.2
2019-03-30T08:08:03.466Z,1025.1
2019-03-30T08:09:03.805Z,1025.2
2019-03-30T08:10:03.800Z,1025.2
2019-03-30T08:11:03.615Z,1025.1
2019-03-30T08:12:03.742Z,1025.1
2019-03-30T08:13:03.761Z,1025.1
2019-03-30T08:14:03.801Z,1025.1
2019-03-30T08:15:03.936Z,1025.1
2019-03-30T08:16:03.427Z,1025.1
2019-03-30T08:17:03.721Z,1025.1
2019-03-30T08:18:03.714Z,1025.1
2019-03-30T08:19:03.880Z,1025.1
2019-03-30T08:20:03.821Z,1025
2019-03-30T08:21:03.010Z,1025.1
2019-03-30T08:22:03.045Z,1025
2019-03-30T08:23:03.206Z,1025
2019-03-30T08:24:03.853Z,1025
2019-03-30T08:25:03.106Z,1025.1
2019-03-30T08:26:03.058Z,1025
2019-03-30T08:27:03.443Z,1025
2019-03-30T08:28:03.191Z,1025
2019-03-30T08:29:02.740Z,1025
2019-03-30T08:30:03.510Z,1025
2019-03-30T08:31:03.031Z,1025
2019-03-30T08:32:03.464Z,1025
2019-03-30T08:33:03.738Z,1024.9
2019-03-30T08:34:02.952Z,1024.7
2019-03-30T08:35:03.865Z,1024.8
2019-03-30T08:36:03.524Z,1024.8
2019-03-30T08:37:03.701Z,1024.7
2019-03-30T08:38:03.764Z,1024.6
2019-03-30T08:39:03.664Z,1024.7
2019-03-30T08:40:03.891Z,1024.5
2019-03-30T08:41:03.884Z,1024.6
2019-03-30T08:42:03.823Z,1024.6
2019-03-30T08:43:03.075Z,1024.4
2019-03-30T08:44:03.912Z,1024.4
2019-03-30T08:45:04.129Z,1024.7
2019-03-30T08:46:03.067Z,1024.6
2019-03-30T08:47:03.191Z,1024.6
2019-03-30T08:48:02.993Z,1024.5
2019-03-30T08:49:03.252Z,1024.4
2019-03-30T08:50:02.881Z,1024.4
2019-03-30T08:51:03.114Z,1024.3
2019-03-30T08:52:03.298Z,1024.4
2019-03-30T08:53:03.035Z,1024.3
2019-03-30T08:54:03.447Z,1024.2
2019-03-30T08:55:03.494Z,1024.3
2019-03-30T08:56:03.807Z,1024.3
2019-03-30T08:57:03.533Z,1024.3
2019-03-30T08:58:03.157Z,1024.2
2019-03-30T08:59:03.021Z,1024.4
2019-03-30T09:00:03.603Z,1024.4
2019-03-30T09:01:03.604Z,1024.3
2019-03-30T09:02:03.551Z,1024.3
2019-03-30T09:03:02.815Z,1024.3
2019-03-30T09:04:03.338Z,1024.2
2019-03-30T09:05:03.208Z,1024.2
2019-03-30T09:06:04.010Z,1024.3
2019-03-30T09:07:03.582Z,1024.3
2019-03-30T09:08:03.551Z,1024.2
2019-03-30T09:09:03.119Z,1024.3
2019-03-30T09:10:03.284Z,1024.3
2019-03-30T09:11:03.443Z,1024.4
2019-03-30T09:12:02.994Z,1024.2
2019-03-30T09:13:03.125Z,1024.2
2019-03-30T09:14:03.997Z,1024.2
2019-03-30T09:15:03.453Z,1024.2
2019-03-30T09:16:03.096Z,1024.2
2019-03-30T09:17:02.829Z,1024.2
2019-03-30T09:18:03.539Z,1024.3
2019-03-30T09:19:03.343Z,1024.3
2019-03-30T09:20:03.148Z,1024.3
2019-03-30T09:21:03.527Z,1024.3
2019-03-30T09:22:03.389Z,1024.3
2019-03-30T09:23:03.277Z,1024.3
2019-03-30T09:24:10.902Z,1024.2
2019-03-30T09:25:03.541Z,1024.1
2019-03-30T09:26:03.622Z,1024.1
2019-03-30T09:27:03.239Z,1024.1
2019-03-30T09:28:03.270Z,1024
2019-03-30T09:29:03.695Z,1024
2019-03-30T09:30:03.498Z,1024
2019-03-30T09:31:03.348Z,1024
2019-03-30T09:32:15.491Z,1024
2019-03-30T09:33:03.523Z,1024
2019-03-30T09:34:03.179Z,1024.1
2019-03-30T09:35:03.422Z,1024
2019-03-30T09:36:03.247Z,1024
2019-03-30T09:37:03.130Z,1023.9
2019-03-30T09:38:03.287Z,1023.9
2019-03-30T09:39:03.104Z,1023.9
2019-03-30T09:40:03.504Z,1023.8
2019-03-30T09:41:03.331Z,1023.9
2019-03-30T09:42:03.287Z,1023.9
2019-03-30T09:43:03.910Z,1023.8
2019-03-30T09:44:03.921Z,1023.8
2019-03-30T09:45:03.910Z,1023.6
2019-03-30T09:46:03.034Z,1023.7
2019-03-30T09:47:03.863Z,1023.8
2019-03-30T09:48:04.019Z,1023.8
2019-03-30T09:49:04.114Z,1023.9
2019-03-30T09:50:03.806Z,1023.9
2019-03-30T09:51:03.468Z,1023.8
2019-03-30T09:52:04.111Z,1023.7
2019-03-30T09:53:02.881Z,1023.8
2019-03-30T09:54:03.527Z,1023.7
2019-03-30T09:55:03.301Z,1023.6
2019-03-30T09:56:03.147Z,1023.6
2019-03-30T09:57:03.389Z,1023.5
2019-03-30T09:58:03.333Z,1023.6
2019-03-30T09:59:03.063Z,1023.7
2019-03-30T10:00:03.529Z,1023.7
2019-03-30T10:01:02.956Z,1023.4
2019-03-30T10:02:03.277Z,1023.5
2019-03-30T10:03:06.792Z,1023.6
2019-03-30T10:04:03.175Z,1023.6
2019-03-30T10:05:02.994Z,1023.5
2019-03-30T10:06:03.244Z,1023.6
2019-03-30T10:07:03.154Z,1023.6
2019-03-30T10:08:03.118Z,1023.4
2019-03-30T10:09:03.988Z,1023.4
2019-03-30T10:10:03.238Z,1023.4
2019-03-30T10:11:03.265Z,1023.4
2019-03-30T10:12:03.543Z,1023.3
2019-03-30T10:13:03.436Z,1023.3
2019-03-30T10:14:03.678Z,1023.2
2019-03-30T10:15:03.666Z,1023.3
2019-03-30T10:16:03.675Z,1023.2
2019-03-30T10:17:04.144Z,1023.3
2019-03-30T10:18:03.246Z,1023.3
2019-03-30T10:19:03.943Z,1023.2
2019-03-30T10:20:05.733Z,1023.3
2019-03-30T10:21:03.807Z,1023.3
2019-03-30T10:22:03.462Z,1023.2
2019-03-30T10:23:03.501Z,1023.2
2019-03-30T10:24:03.895Z,1023.2
2019-03-30T10:25:02.823Z,1023.1
2019-03-30T10:26:04.013Z,1023.1
2019-03-30T10:27:03.122Z,1023.1
2019-03-30T10:28:03.033Z,1023
2019-03-30T10:29:03.909Z,1023
2019-03-30T10:30:03.213Z,1022.9
2019-03-30T10:31:03.137Z,1023
2019-03-30T10:32:03.054Z,1022.9
2019-03-30T10:33:03.877Z,1022.9
2019-03-30T10:34:03.277Z,1022.9
2019-03-30T10:35:03.169Z,1022.9
2019-03-30T10:36:03.102Z,1022.9
2019-03-30T10:37:02.905Z,1022.7
2019-03-30T10:38:03.072Z,1022.6
2019-03-30T10:39:03.028Z,1022.6
2019-03-30T10:40:03.297Z,1022.7
2019-03-30T10:41:02.996Z,1022.6
2019-03-30T10:42:03.463Z,1022.6
2019-03-30T10:43:03.131Z,1022.6
2019-03-30T10:44:03.087Z,1022.6
2019-03-30T10:45:03.410Z,1022.6
2019-03-30T10:46:03.177Z,1022.6
2019-03-30T10:47:03.085Z,1022.6
2019-03-30T10:48:03.039Z,1022.8
2019-03-30T10:49:03.162Z,1022.8
2019-03-30T10:50:03.226Z,1022.8
2019-03-30T10:51:03.272Z,1022.8
2019-03-30T10:52:03.231Z,1022.6
2019-03-30T10:53:03.303Z,1022.7
2019-03-30T10:54:03.100Z,1022.5
2019-03-30T10:55:03.567Z,1022.6
2019-03-30T10:56:03.175Z,1022.5
2019-03-30T10:57:03.009Z,1022.4
2019-03-30T10:58:03.396Z,1022.4
2019-03-30T10:59:03.945Z,1022.3
2019-03-30T11:00:03.141Z,1022.5
2019-03-30T11:01:02.893Z,1022.6
2019-03-30T11:02:03.119Z,1022.6
2019-03-30T11:03:03.104Z,1022.5
2019-03-30T11:04:03.074Z,1022.5
2019-03-30T11:05:02.888Z,1022.6
2019-03-30T11:06:03.348Z,1022.5
2019-03-30T11:07:03.603Z,1022.4
2019-03-30T11:08:02.864Z,1022.5
2019-03-30T11:09:03.262Z,1022.2
2019-03-30T11:10:03.226Z,1022.1
2019-03-30T11:11:03.946Z,1022.1
2019-03-30T11:12:02.867Z,1022.1
2019-03-30T11:13:03.296Z,1022
2019-03-30T11:14:02.999Z,1022.2
2019-03-30T11:15:03.252Z,1022.3
2019-03-30T11:16:03.298Z,1022.3
2019-03-30T11:17:03.088Z,1022.3
2019-03-30T11:18:02.858Z,1022.3
2019-03-30T11:19:03.400Z,1022.3
2019-03-30T11:20:03.278Z,1022.4
2019-03-30T11:21:03.316Z,1022.4
2019-03-30T11:22:03.881Z,1022.4
2019-03-30T11:23:03.266Z,1022.3
2019-03-30T11:24:07.306Z,1022.3
2019-03-30T11:25:09.486Z,1022.2
2019-03-30T11:26:03.242Z,1022.2
2019-03-30T11:27:03.118Z,1022.2
2019-03-30T11:28:04.141Z,1022.2
2019-03-30T11:29:03.038Z,1022.2
2019-03-30T11:30:03.537Z,1022.1
2019-03-30T11:31:06.120Z,1022.1
2019-03-30T11:32:03.226Z,1022.3
2019-03-30T11:33:03.090Z,1022.1
2019-03-30T11:34:03.274Z,1022.1
2019-03-30T11:35:03.143Z,1022.1
2019-03-30T11:36:03.407Z,1022
2019-03-30T11:37:03.074Z,1022.1
2019-03-30T11:38:04.134Z,1021.9
2019-03-30T11:39:03.968Z,1022.1
2019-03-30T11:40:04.149Z,1022
2019-03-30T11:41:04.136Z,1022
2019-03-30T11:42:04.083Z,1022.1
2019-03-30T11:43:02.881Z,1022
2019-03-30T11:44:04.013Z,1022
2019-03-30T11:45:03.620Z,1022
2019-03-30T11:46:03.955Z,1022
2019-03-30T11:47:03.886Z,1021.8
2019-03-30T11:48:03.815Z,1021.8
2019-03-30T11:49:03.206Z,1021.7
2019-03-30T11:50:03.753Z,1021.7
2019-03-30T11:51:03.162Z,1021.8
2019-03-30T11:52:04.009Z,1021.7
2019-03-30T11:53:02.932Z,1021.7
2019-03-30T11:54:05.810Z,1021.6
2019-03-30T11:55:03.964Z,1021.7
2019-03-30T11:56:04.032Z,1021.6
2019-03-30T11:57:03.095Z,1021.7
2019-03-30T11:58:03.270Z,1021.5
2019-03-30T11:59:04.064Z,1021.5
2019-03-30T12:00:03.184Z,1021.4
2019-03-30T12:01:03.973Z,1021.3
2019-03-30T12:02:03.744Z,1021.3
2019-03-30T12:03:04.074Z,1021.2
2019-03-30T12:04:03.892Z,1021.3
2019-03-30T12:05:03.147Z,1021.2
2019-03-30T12:06:03.211Z,1021.1
2019-03-30T12:07:03.338Z,1021.1
2019-03-30T12:08:03.268Z,1021.2
2019-03-30T12:09:03.162Z,1021.2
2019-03-30T12:10:03.127Z,1021.2
2019-03-30T12:11:03.131Z,1021.3
2019-03-30T12:12:03.048Z,1021.4
2019-03-30T12:13:03.801Z,1021.4
2019-03-30T12:14:03.148Z,1021.6
2019-03-30T12:15:03.151Z,1021.6
2019-03-30T12:16:03.043Z,1021.5
2019-03-30T12:17:03.258Z,1021.6
2019-03-30T12:18:03.198Z,1021.6
2019-03-30T12:19:03.248Z,1021.5
2019-03-30T12:20:03.232Z,1021.5
2019-03-30T12:21:03.155Z,1021.4
2019-03-30T12:22:03.220Z,1021.3
2019-03-30T12:23:03.324Z,1021.4
2019-03-30T12:24:03.241Z,1021.4
2019-03-30T12:25:03.275Z,1021.2
2019-03-30T12:26:03.963Z,1021.2
2019-03-30T12:27:03.112Z,1021.2
2019-03-30T12:28:02.852Z,1021.2
2019-03-30T12:29:04.093Z,1021.2
2019-03-30T12:30:03.174Z,1021.1
2019-03-30T12:31:03.022Z,1021